Aviation Digital Data Service (ADDS)

Output produced by TAFs form (2354 UTC 18 February 2018)
found at http://www.aviationweather.gov/adds/tafs/
 
METAR text: RJOY 182300Z 03003KT CAVOK 02/M04 Q1024
Conditions at: RJOY (YAO (CIV/JGSDF) , JP) observed 2300 UTC 18 February 2018
Temperature: 2.0°C (36°F)
Dewpoint: -4.0°C (25°F) [RH = 64%]
Pressure (altimeter): 30.24 inches Hg (1024.0 mb)
Winds: from the NNE (30 degrees) at 3 MPH (3 knots; 1.6 m/s)
Visibility: 6 or more miles (10+ km)
Ceiling: ceiling and visibility are OK
Clouds: unknown
Weather: no significant weather observed at this time